Aviation Digital Data Service (ADDS)

Output produced by METARs form (1420 UTC 24 August 2019)
found at http://www.aviationweather.gov/metar/data/
 
METAR text: LQSA 241400Z VRB04KT 9999 -TSRA SCT035CB SCT050 21/17 Q1020 NOSIG
Conditions at: LQSA (SARAJEVO/BUTMIR , CS) observed 1400 UTC 24 August 2019
Temperature: 21.0°C (70°F)
Dewpoint: 17.0°C (63°F) [RH = 78%]
Pressure (altimeter): 30.12 inches Hg (1020.0 mb)
Winds: variable direction winds at 5 MPH (4 knots; 2.1 m/s)
Visibility: 6 or more miles (10+ km)
Ceiling: at least 12,000 feet AGL
Clouds: scattered clouds at 3500 feet AGL
scattered clouds at 5000 feet AGL
Weather: -TSRA  (light rain associated with thunderstorm(s))

METAR text: LQSA 241330Z VRB04KT 9999 -TSRA FEW035CB SCT045 25/11 Q1020 TEMPO TSRA
Conditions at: LQSA (SARAJEVO/BUTMIR , CS) observed 1330 UTC 24 August 2019
Temperature: 25.0°C (77°F)
Dewpoint: 11.0°C (52°F) [RH = 41%]
Pressure (altimeter): 30.12 inches Hg (1020.0 mb)
Winds: variable direction winds at 5 MPH (4 knots; 2.1 m/s)
Visibility: 6 or more miles (10+ km)
Ceiling: at least 12,000 feet AGL
Clouds: few clouds at 3500 feet AGL
scattered clouds at 4500 feet AGL
Weather: -TSRA  (light rain associated with thunderstorm(s))

METAR text: LQSA 241300Z 34004KT 280V030 9999 TS SCT035CB 27/16 Q1020 NOSIG
Conditions at: LQSA (SARAJEVO/BUTMIR , CS) observed 1300 UTC 24 August 2019
Temperature: 27.0°C (81°F)
Dewpoint: 16.0°C (61°F) [RH = 51%]
Pressure (altimeter): 30.12 inches Hg (1020.0 mb)
Winds: from the NNW (340 degrees) at 5 MPH (4 knots; 2.1 m/s)
Visibility: 6 or more miles (10+ km)
Ceiling: at least 12,000 feet AGL
Clouds: scattered clouds at 3500 feet AGL
Weather: TS  (thunderstorm)

METAR text: LQSA 241230Z 31007KT 280V340 8000 TS FEW035CB SCT050 29/17 Q1019 NOSIG
Conditions at: LQSA (SARAJEVO/BUTMIR , CS) observed 1230 UTC 24 August 2019
Temperature: 29.0°C (84°F)
Dewpoint: 17.0°C (63°F) [RH = 48%]
Pressure (altimeter): 30.09 inches Hg (1019.0 mb)
Winds: from the NW (310 degrees) at 8 MPH (7 knots; 3.6 m/s)
Visibility: 5 miles ( 8 km)
Ceiling: at least 12,000 feet AGL
Clouds: few clouds at 3500 feet AGL
scattered clouds at 5000 feet AGL
Weather: TS  (thunderstorm)

METAR text: LQSA 241200Z 30006KT 260V350 8000 TS FEW035TCB SCT050 28/19 Q1019 NOSIG
Conditions at: LQSA (SARAJEVO/BUTMIR , CS) observed 1200 UTC 24 August 2019
Temperature: 28.0°C (82°F)
Dewpoint: 19.0°C (66°F) [RH = 58%]
Pressure (altimeter): 30.09 inches Hg (1019.0 mb)
Winds: from the WNW (300 degrees) at 7 MPH (6 knots; 3.1 m/s)
Visibility: 5 miles ( 8 km)
Ceiling: at least 12,000 feet AGL
Clouds: scattered clouds at 5000 feet AGL
Weather: TS  (thunderstorm)

METAR text: LQSA 241130Z 31008KT 260V340 8000 FEW040TCU SCT050 28/19 Q1020 TEMPO TSRA FEW035CB SCT045
Conditions at: LQSA (SARAJEVO/BUTMIR , CS) observed 1130 UTC 24 August 2019
Temperature: 28.0°C (82°F)
Dewpoint: 19.0°C (66°F) [RH = 58%]
Pressure (altimeter): 30.12 inches Hg (1020.0 mb)
Winds: from the NW (310 degrees) at 9 MPH (8 knots; 4.1 m/s)
Visibility: 5 miles ( 8 km)
Ceiling: at least 12,000 feet AGL
Clouds: few clouds at 4000 feet AGL
scattered clouds at 5000 feet AGL
Weather: no significant weather observed at this time

METAR text: LQSA 241100Z VRB04KT 8000 FEW040TCU SCT050 27/19 Q1020 TEMPO TSRA FEW035CB SCT045
Conditions at: LQSA (SARAJEVO/BUTMIR , CS) observed 1100 UTC 24 August 2019
Temperature: 27.0°C (81°F)
Dewpoint: 19.0°C (66°F) [RH = 62%]
Pressure (altimeter): 30.12 inches Hg (1020.0 mb)
Winds: variable direction winds at 5 MPH (4 knots; 2.1 m/s)
Visibility: 5 miles ( 8 km)
Ceiling: at least 12,000 feet AGL
Clouds: few clouds at 4000 feet AGL
scattered clouds at 5000 feet AGL
Weather: no significant weather observed at this time

METAR text: LQSA 241030Z VRB03KT 8000 SCT040 27/19 Q1021 NOSIG
Conditions at: LQSA (SARAJEVO/BUTMIR , CS) observed 1030 UTC 24 August 2019
Temperature: 27.0°C (81°F)
Dewpoint: 19.0°C (66°F) [RH = 62%]
Pressure (altimeter): 30.15 inches Hg (1021.0 mb)
Winds: variable direction winds at 3 MPH (3 knots; 1.5 m/s)
Visibility: 5 miles ( 8 km)
Ceiling: at least 12,000 feet AGL
Clouds: scattered clouds at 4000 feet AGL
Weather: no significant weather observed at this time

METAR text: LQSA 241000Z VRB03KT 8000 FEW040 26/18 Q1021 NOSIG
Conditions at: LQSA (SARAJEVO/BUTMIR , CS) observed 1000 UTC 24 August 2019
Temperature: 26.0°C (79°F)
Dewpoint: 18.0°C (64°F) [RH = 61%]
Pressure (altimeter): 30.15 inches Hg (1021.0 mb)
Winds: variable direction winds at 3 MPH (3 knots; 1.5 m/s)
Visibility: 5 miles ( 8 km)
Ceiling: at least 12,000 feet AGL
Clouds: few clouds at 4000 feet AGL
Weather: no significant weather observed at this time

METAR text: LQSA 240930Z VRB03KT 8000 FEW040 25/19 Q1021 NOSIG
Conditions at: LQSA (SARAJEVO/BUTMIR , CS) observed 0930 UTC 24 August 2019
Temperature: 25.0°C (77°F)
Dewpoint: 19.0°C (66°F) [RH = 69%]
Pressure (altimeter): 30.15 inches Hg (1021.0 mb)
Winds: variable direction winds at 3 MPH (3 knots; 1.5 m/s)
Visibility: 5 miles ( 8 km)
Ceiling: at least 12,000 feet AGL
Clouds: few clouds at 4000 feet AGL
Weather: no significant weather observed at this time

METAR text: LQSA 240900Z 31003KT 270V070 8000 FEW030 24/19 Q1022 NOSIG
Conditions at: LQSA (SARAJEVO/BUTMIR , CS) observed 0900 UTC 24 August 2019
Temperature: 24.0°C (75°F)
Dewpoint: 19.0°C (66°F) [RH = 74%]
Pressure (altimeter): 30.18 inches Hg (1022.0 mb)
Winds: from the NW (310 degrees) at 3 MPH (3 knots; 1.5 m/s)
Visibility: 5 miles ( 8 km)
Ceiling: at least 12,000 feet AGL
Clouds: few clouds at 3000 feet AGL
Weather: no significant weather observed at this time

METAR text: LQSA 240830Z VRB02KT 8000 FEW030 23/18 Q1022 NOSIG
Conditions at: LQSA (SARAJEVO/BUTMIR , CS) observed 0830 UTC 24 August 2019
Temperature: 23.0°C (73°F)
Dewpoint: 18.0°C (64°F) [RH = 73%]
Pressure (altimeter): 30.18 inches Hg (1022.0 mb)
Winds: variable direction winds at 2 MPH (2 knots; 1.0 m/s)
Visibility: 5 miles ( 8 km)
Ceiling: at least 12,000 feet AGL
Clouds: few clouds at 3000 feet AGL
Weather: no significant weather observed at this time

METAR text: LQSA 240800Z VRB02KT 8000 FEW020 22/18 Q1022 NOSIG
Conditions at: LQSA (SARAJEVO/BUTMIR , CS) observed 0800 UTC 24 August 2019
Temperature: 22.0°C (72°F)
Dewpoint: 18.0°C (64°F) [RH = 78%]
Pressure (altimeter): 30.18 inches Hg (1022.0 mb)
Winds: variable direction winds at 2 MPH (2 knots; 1.0 m/s)
Visibility: 5 miles ( 8 km)
Ceiling: at least 12,000 feet AGL
Clouds: few clouds at 2000 feet AGL
Weather: no significant weather observed at this time

METAR text: LQSA 240730Z VRB01KT 8000 SCT025 21/18 Q1022 NOSIG
Conditions at: LQSA (SARAJEVO/BUTMIR , CS) observed 0730 UTC 24 August 2019
Temperature: 21.0°C (70°F)
Dewpoint: 18.0°C (64°F) [RH = 83%]
Pressure (altimeter): 30.18 inches Hg (1022.0 mb)
Winds: variable direction winds at 1 MPH (1 knots; 0.5 m/s)
Visibility: 5 miles ( 8 km)
Ceiling: at least 12,000 feet AGL
Clouds: scattered clouds at 2500 feet AGL
Weather: no significant weather observed at this time

METAR text: LQSA 240700Z VRB01KT 7000 FEW015 SCT030 21/18 Q1022 NOSIG
Conditions at: LQSA (SARAJEVO/BUTMIR , CS) observed 0700 UTC 24 August 2019
Temperature: 21.0°C (70°F)
Dewpoint: 18.0°C (64°F) [RH = 83%]
Pressure (altimeter): 30.18 inches Hg (1022.0 mb)
Winds: variable direction winds at 1 MPH (1 knots; 0.5 m/s)
Visibility: 4 miles ( 7 km)
Ceiling: at least 12,000 feet AGL
Clouds: few clouds at 1500 feet AGL
scattered clouds at 3000 feet AGL
Weather: no significant weather observed at this time

METAR text: LQSA 240630Z 12003KT 050V170 7000 SCT015 BKN030 20/17 Q1022 NOSIG
Conditions at: LQSA (SARAJEVO/BUTMIR , CS) observed 0630 UTC 24 August 2019
Temperature: 20.0°C (68°F)
Dewpoint: 17.0°C (63°F) [RH = 83%]
Pressure (altimeter): 30.18 inches Hg (1022.0 mb)
Winds: from the ESE (120 degrees) at 3 MPH (3 knots; 1.5 m/s)
Visibility: 4 miles ( 7 km)
Ceiling: 3000 feet AGL
Clouds: scattered clouds at 1500 feet AGL
broken clouds at 3000 feet AGL
Weather: no significant weather observed at this time

METAR text: LQSA 240600Z 15005KT 7000 FEW004 FEW015 OVC030 19/17 Q1022 NOSIG
Conditions at: LQSA (SARAJEVO/BUTMIR , CS) observed 0600 UTC 24 August 2019
Temperature: 19.0°C (66°F)
Dewpoint: 17.0°C (63°F) [RH = 88%]
Pressure (altimeter): 30.18 inches Hg (1022.0 mb)
Winds: from the SSE (150 degrees) at 6 MPH (5 knots; 2.6 m/s)
Visibility: 4 miles ( 7 km)
Ceiling: 3000 feet AGL
Clouds: few clouds at 400 feet AGL
few clouds at 1500 feet AGL
overcast cloud deck at 3000 feet AGL
Weather: no significant weather observed at this time

METAR text: LQSA 240530Z 16003KT 130V190 7000 FEW006 FEW018 BKN030 19/17 Q1022 NOSIG
Conditions at: LQSA (SARAJEVO/BUTMIR , CS) observed 0530 UTC 24 August 2019
Temperature: 19.0°C (66°F)
Dewpoint: 17.0°C (63°F) [RH = 88%]
Pressure (altimeter): 30.18 inches Hg (1022.0 mb)
Winds: from the SSE (160 degrees) at 3 MPH (3 knots; 1.5 m/s)
Visibility: 4 miles ( 7 km)
Ceiling: 3000 feet AGL
Clouds: few clouds at 600 feet AGL
few clouds at 1800 feet AGL
broken clouds at 3000 feet AGL
Weather: no significant weather observed at this time

METAR text: LQSA 240500Z VRB02KT 6000 SCT015 BKN030 19/17 Q1022 NOSIG
Conditions at: LQSA (SARAJEVO/BUTMIR , CS) observed 0500 UTC 24 August 2019
Temperature: 19.0°C (66°F)
Dewpoint: 17.0°C (63°F) [RH = 88%]
Pressure (altimeter): 30.18 inches Hg (1022.0 mb)
Winds: variable direction winds at 2 MPH (2 knots; 1.0 m/s)
Visibility: 4 miles ( 6 km)
Ceiling: 3000 feet AGL
Clouds: scattered clouds at 1500 feet AGL
broken clouds at 3000 feet AGL
Weather: no significant weather observed at this time

METAR text: LQSA 240430Z 15004KT 5000 BR SCT008 BKN030 18/17 Q1022 NOSIG
Conditions at: LQSA (SARAJEVO/BUTMIR , CS) observed 0430 UTC 24 August 2019
Temperature: 18.0°C (64°F)
Dewpoint: 17.0°C (63°F) [RH = 94%]
Pressure (altimeter): 30.18 inches Hg (1022.0 mb)
Winds: from the SSE (150 degrees) at 5 MPH (4 knots; 2.1 m/s)
Visibility: 3 miles ( 5 km)
Ceiling: 3000 feet AGL
Clouds: scattered clouds at 800 feet AGL
broken clouds at 3000 feet AGL
Weather: BR  (mist)

METAR text: LQSA 240400Z 14003KT 090V160 4000 BR SCT006 BKN030 18/18 Q1022
Conditions at: LQSA (SARAJEVO/BUTMIR , CS) observed 0400 UTC 24 August 2019
Temperature: 18.0°C (64°F)
Dewpoint: 18.0°C (64°F) [RH = 100%]
Pressure (altimeter): 30.18 inches Hg (1022.0 mb)
Winds: from the SE (140 degrees) at 3 MPH (3 knots; 1.5 m/s)
Visibility: 2.49 miles (4.01 km)
Ceiling: 3000 feet AGL
Clouds: scattered clouds at 600 feet AGL
broken clouds at 3000 feet AGL
Weather: BR  (mist)

METAR text: LQSA 240330Z 15003KT 7000 SCT006 BKN030 18/17 Q1022
Conditions at: LQSA (SARAJEVO/BUTMIR , CS) observed 0330 UTC 24 August 2019
Temperature: 18.0°C (64°F)
Dewpoint: 17.0°C (63°F) [RH = 94%]
Pressure (altimeter): 30.18 inches Hg (1022.0 mb)
Winds: from the SSE (150 degrees) at 3 MPH (3 knots; 1.5 m/s)
Visibility: 4 miles ( 7 km)
Ceiling: 3000 feet AGL
Clouds: scattered clouds at 600 feet AGL
broken clouds at 3000 feet AGL
Weather: no significant weather observed at this time

METAR text: LQSA 240300Z 14004KT 7000 SCT003 BKN030 18/18 Q1022
Conditions at: LQSA (SARAJEVO/BUTMIR , CS) observed 0300 UTC 24 August 2019
Temperature: 18.0°C (64°F)
Dewpoint: 18.0°C (64°F) [RH = 100%]
Pressure (altimeter): 30.18 inches Hg (1022.0 mb)
Winds: from the SE (140 degrees) at 5 MPH (4 knots; 2.1 m/s)
Visibility: 4 miles ( 7 km)
Ceiling: 3000 feet AGL
Clouds: scattered clouds at 300 feet AGL
broken clouds at 3000 feet AGL
Weather: no significant weather observed at this time

METAR text: LQSA 240200Z 14003KT 7000 SCT004 18/17 Q1022
Conditions at: LQSA (SARAJEVO/BUTMIR , CS) observed 0200 UTC 24 August 2019
Temperature: 18.0°C (64°F)
Dewpoint: 17.0°C (63°F) [RH = 94%]
Pressure (altimeter): 30.18 inches Hg (1022.0 mb)
Winds: from the SE (140 degrees) at 3 MPH (3 knots; 1.5 m/s)
Visibility: 4 miles ( 7 km)
Ceiling: at least 12,000 feet AGL
Clouds: scattered clouds at 400 feet AGL
Weather: no significant weather observed at this time

METAR text: LQSA 240100Z 14004KT 7000 SCT004 18/18 Q1023
Conditions at: LQSA (SARAJEVO/BUTMIR , CS) observed 0100 UTC 24 August 2019
Temperature: 18.0°C (64°F)
Dewpoint: 18.0°C (64°F) [RH = 100%]
Pressure (altimeter): 30.21 inches Hg (1023.0 mb)
Winds: from the SE (140 degrees) at 5 MPH (4 knots; 2.1 m/s)
Visibility: 4 miles ( 7 km)
Ceiling: at least 12,000 feet AGL
Clouds: scattered clouds at 400 feet AGL
Weather: no significant weather observed at this time

METAR text: LQSA 240000Z 12003KT 7000 SCT070 18/18 Q1023
Conditions at: LQSA (SARAJEVO/BUTMIR , CS) observed 0000 UTC 24 August 2019
Temperature: 18.0°C (64°F)
Dewpoint: 18.0°C (64°F) [RH = 100%]
Pressure (altimeter): 30.21 inches Hg (1023.0 mb)
Winds: from the ESE (120 degrees) at 3 MPH (3 knots; 1.5 m/s)
Visibility: 4 miles ( 7 km)
Ceiling: at least 12,000 feet AGL
Clouds: scattered clouds at 7000 feet AGL
Weather: no significant weather observed at this time

METAR text: LQSA 232300Z VRB01KT 8000 SCT070 19/19 Q1023
Conditions at: LQSA (SARAJEVO/BUTMIR , CS) observed 2300 UTC 23 August 2019
Temperature: 19.0°C (66°F)
Dewpoint: 19.0°C (66°F) [RH = 100%]
Pressure (altimeter): 30.21 inches Hg (1023.0 mb)
Winds: variable direction winds at 1 MPH (1 knots; 0.5 m/s)
Visibility: 5 miles ( 8 km)
Ceiling: at least 12,000 feet AGL
Clouds: scattered clouds at 7000 feet AGL
Weather: no significant weather observed at this time

METAR text: LQSA 232200Z VRB01KT 8000 SCT070 20/19 Q1022
Conditions at: LQSA (SARAJEVO/BUTMIR , CS) observed 2200 UTC 23 August 2019
Temperature: 20.0°C (68°F)
Dewpoint: 19.0°C (66°F) [RH = 94%]
Pressure (altimeter): 30.18 inches Hg (1022.0 mb)
Winds: variable direction winds at 1 MPH (1 knots; 0.5 m/s)
Visibility: 5 miles ( 8 km)
Ceiling: at least 12,000 feet AGL
Clouds: scattered clouds at 7000 feet AGL
Weather: no significant weather observed at this time

METAR text: LQSA 232100Z 00000KT 8000 SCT050 20/19 Q1023
Conditions at: LQSA (SARAJEVO/BUTMIR , CS) observed 2100 UTC 23 August 2019
Temperature: 20.0°C (68°F)
Dewpoint: 19.0°C (66°F) [RH = 94%]
Pressure (altimeter): 30.21 inches Hg (1023.0 mb)
Winds: calm
Visibility: 5 miles ( 8 km)
Ceiling: at least 12,000 feet AGL
Clouds: scattered clouds at 5000 feet AGL
Weather: no significant weather observed at this time

METAR text: LQSA 232030Z VRB02KT 8000 SCT050 20/20 Q1023 NOSIG
Conditions at: LQSA (SARAJEVO/BUTMIR , CS) observed 2030 UTC 23 August 2019
Temperature: 20.0°C (68°F)
Dewpoint: 20.0°C (68°F) [RH = 100%]
Pressure (altimeter): 30.21 inches Hg (1023.0 mb)
Winds: variable direction winds at 2 MPH (2 knots; 1.0 m/s)
Visibility: 5 miles ( 8 km)
Ceiling: at least 12,000 feet AGL
Clouds: scattered clouds at 5000 feet AGL
Weather: no significant weather observed at this time

METAR text: LQSA 232000Z 00000KT 8000 BKN050 21/20 Q1023 NOSIG
Conditions at: LQSA (SARAJEVO/BUTMIR , CS) observed 2000 UTC 23 August 2019
Temperature: 21.0°C (70°F)
Dewpoint: 20.0°C (68°F) [RH = 94%]
Pressure (altimeter): 30.21 inches Hg (1023.0 mb)
Winds: calm
Visibility: 5 miles ( 8 km)
Ceiling: 5000 feet AGL
Clouds: broken clouds at 5000 feet AGL
Weather: no significant weather observed at this time

METAR text: LQSA 231930Z 34003KT 310V010 8000 BKN050 21/20 Q1023 NOSIG
Conditions at: LQSA (SARAJEVO/BUTMIR , CS) observed 1930 UTC 23 August 2019
Temperature: 21.0°C (70°F)
Dewpoint: 20.0°C (68°F) [RH = 94%]
Pressure (altimeter): 30.21 inches Hg (1023.0 mb)
Winds: from the NNW (340 degrees) at 3 MPH (3 knots; 1.5 m/s)
Visibility: 5 miles ( 8 km)
Ceiling: 5000 feet AGL
Clouds: broken clouds at 5000 feet AGL
Weather: no significant weather observed at this time

METAR text: LQSA 231900Z VRB01KT 8000 SCT040 BKN050 21/20 Q1023 NOSIG
Conditions at: LQSA (SARAJEVO/BUTMIR , CS) observed 1900 UTC 23 August 2019
Temperature: 21.0°C (70°F)
Dewpoint: 20.0°C (68°F) [RH = 94%]
Pressure (altimeter): 30.21 inches Hg (1023.0 mb)
Winds: variable direction winds at 1 MPH (1 knots; 0.5 m/s)
Visibility: 5 miles ( 8 km)
Ceiling: 5000 feet AGL
Clouds: scattered clouds at 4000 feet AGL
broken clouds at 5000 feet AGL
Weather: no significant weather observed at this time

METAR text: LQSA 231830Z 33004KT 8000 SCT035 BKN050 22/21 Q1023 BECMG NSW
Conditions at: LQSA (SARAJEVO/BUTMIR , CS) observed 1830 UTC 23 August 2019
Temperature: 22.0°C (72°F)
Dewpoint: 21.0°C (70°F) [RH = 94%]
Pressure (altimeter): 30.21 inches Hg (1023.0 mb)
Winds: from the NNW (330 degrees) at 5 MPH (4 knots; 2.1 m/s)
Visibility: 5 miles ( 8 km)
Ceiling: 5000 feet AGL
Clouds: scattered clouds at 3500 feet AGL
broken clouds at 5000 feet AGL
Weather: no significant weather observed at this time

METAR text: LQSA 231800Z VRB01KT 8000 -TSRA FEW035CB BKN050 22/20 Q1022 BECMG NSW
Conditions at: LQSA (SARAJEVO/BUTMIR , CS) observed 1800 UTC 23 August 2019
Temperature: 22.0°C (72°F)
Dewpoint: 20.0°C (68°F) [RH = 88%]
Pressure (altimeter): 30.18 inches Hg (1022.0 mb)
Winds: variable direction winds at 1 MPH (1 knots; 0.5 m/s)
Visibility: 5 miles ( 8 km)
Ceiling: 5000 feet AGL
Clouds: few clouds at 3500 feet AGL
broken clouds at 5000 feet AGL
Weather: -TSRA  (light rain associated with thunderstorm(s))

METAR text: LQSA 231730Z 23003KT 200V320 6000 -TSRA FEW006 FEW035CB BKN050 22/21 Q1022 BECMG NSW
Conditions at: LQSA (SARAJEVO/BUTMIR , CS) observed 1730 UTC 23 August 2019
Temperature: 22.0°C (72°F)
Dewpoint: 21.0°C (70°F) [RH = 94%]
Pressure (altimeter): 30.18 inches Hg (1022.0 mb)
Winds: from the SW (230 degrees) at 3 MPH (3 knots; 1.5 m/s)
Visibility: 4 miles ( 6 km)
Ceiling: 5000 feet AGL
Clouds: few clouds at 600 feet AGL
few clouds at 3500 feet AGL
broken clouds at 5000 feet AGL
Weather: -TSRA  (light rain associated with thunderstorm(s))

METAR text: LQSA 231700Z VRB03KT 7000 TSRA FEW002 FEW030CB BKN045 23/21 Q1022 BECMG NSW
Conditions at: LQSA (SARAJEVO/BUTMIR , CS) observed 1700 UTC 23 August 2019
Temperature: 23.0°C (73°F)
Dewpoint: 21.0°C (70°F) [RH = 89%]
Pressure (altimeter): 30.18 inches Hg (1022.0 mb)
Winds: variable direction winds at 3 MPH (3 knots; 1.5 m/s)
Visibility: 4 miles ( 7 km)
Ceiling: 4500 feet AGL
Clouds: few clouds at 200 feet AGL
few clouds at 3000 feet AGL
broken clouds at 4500 feet AGL
Weather: TSRA  (rain associated with thunderstorm(s))

METAR text: LQSA 231630Z 36008KT 8000 TSRA FEW010 FEW030CB SCT045 24/19 Q1021 BECMG NSW
Conditions at: LQSA (SARAJEVO/BUTMIR , CS) observed 1630 UTC 23 August 2019
Temperature: 24.0°C (75°F)
Dewpoint: 19.0°C (66°F) [RH = 74%]
Pressure (altimeter): 30.15 inches Hg (1021.0 mb)
Winds: from the N (360 degrees) at 9 MPH (8 knots; 4.1 m/s)
Visibility: 5 miles ( 8 km)
Ceiling: at least 12,000 feet AGL
Clouds: few clouds at 1000 feet AGL
few clouds at 3000 feet AGL
scattered clouds at 4500 feet AGL
Weather: TSRA  (rain associated with thunderstorm(s))

METAR text: LQSA 231600Z 30010KT 280V350 9999 -RA FEW035CB SCT055 27/19 Q1021 TEMPO TSRA
Conditions at: LQSA (SARAJEVO/BUTMIR , CS) observed 1600 UTC 23 August 2019
Temperature: 27.0°C (81°F)
Dewpoint: 19.0°C (66°F) [RH = 62%]
Pressure (altimeter): 30.15 inches Hg (1021.0 mb)
Winds: from the WNW (300 degrees) at 12 MPH (10 knots; 5.1 m/s)
Visibility: 6 or more miles (10+ km)
Ceiling: at least 12,000 feet AGL
Clouds: few clouds at 3500 feet AGL
scattered clouds at 5500 feet AGL
Weather: -RA  (light rain)

METAR text: LQSA 231530Z 34008KT 310V030 9999 SCT055 29/18 Q1021 NOSIG
Conditions at: LQSA (SARAJEVO/BUTMIR , CS) observed 1530 UTC 23 August 2019
Temperature: 29.0°C (84°F)
Dewpoint: 18.0°C (64°F) [RH = 52%]
Pressure (altimeter): 30.15 inches Hg (1021.0 mb)
Winds: from the NNW (340 degrees) at 9 MPH (8 knots; 4.1 m/s)
Visibility: 6 or more miles (10+ km)
Ceiling: at least 12,000 feet AGL
Clouds: scattered clouds at 5500 feet AGL
Weather: no significant weather observed at this time

METAR text: LQSA 231500Z 34007KT 290V030 9999 SCT055 30/18 Q1021 NOSIG
Conditions at: LQSA (SARAJEVO/BUTMIR , CS) observed 1500 UTC 23 August 2019
Temperature: 30.0°C (86°F)
Dewpoint: 18.0°C (64°F) [RH = 49%]
Pressure (altimeter): 30.15 inches Hg (1021.0 mb)
Winds: from the NNW (340 degrees) at 8 MPH (7 knots; 3.6 m/s)
Visibility: 6 or more miles (10+ km)
Ceiling: at least 12,000 feet AGL
Clouds: scattered clouds at 5500 feet AGL
Weather: no significant weather observed at this time

METAR text: LQSA 231430Z 33008KT 300V030 9999 SCT050 30/17 Q1021 NOSIG
Conditions at: LQSA (SARAJEVO/BUTMIR , CS) observed 1430 UTC 23 August 2019
Temperature: 30.0°C (86°F)
Dewpoint: 17.0°C (63°F) [RH = 46%]
Pressure (altimeter): 30.15 inches Hg (1021.0 mb)
Winds: from the NNW (330 degrees) at 9 MPH (8 knots; 4.1 m/s)
Visibility: 6 or more miles (10+ km)
Ceiling: at least 12,000 feet AGL
Clouds: scattered clouds at 5000 feet AGL
Weather: no significant weather observed at this time

METAR text: LQSA 231400Z 36007KT 320V080 9999 SCT050 29/17 Q1021 NOSIG
Conditions at: LQSA (SARAJEVO/BUTMIR , CS) observed 1400 UTC 23 August 2019
Temperature: 29.0°C (84°F)
Dewpoint: 17.0°C (63°F) [RH = 48%]
Pressure (altimeter): 30.15 inches Hg (1021.0 mb)
Winds: from the N (360 degrees) at 8 MPH (7 knots; 3.6 m/s)
Visibility: 6 or more miles (10+ km)
Ceiling: at least 12,000 feet AGL
Clouds: scattered clouds at 5000 feet AGL
Weather: no significant weather observed at this time

METAR text: LQSA 231330Z 36009KT 310V060 9999 SCT050 30/17 Q1021 NOSIG
Conditions at: LQSA (SARAJEVO/BUTMIR , CS) observed 1330 UTC 23 August 2019
Temperature: 30.0°C (86°F)
Dewpoint: 17.0°C (63°F) [RH = 46%]
Pressure (altimeter): 30.15 inches Hg (1021.0 mb)
Winds: from the N (360 degrees) at 10 MPH (9 knots; 4.6 m/s)
Visibility: 6 or more miles (10+ km)
Ceiling: at least 12,000 feet AGL
Clouds: scattered clouds at 5000 feet AGL
Weather: no significant weather observed at this time

METAR text: LQSA 231300Z VRB05KT 9999 SCT050 30/16 Q1021 NOSIG
Conditions at: LQSA (SARAJEVO/BUTMIR , CS) observed 1300 UTC 23 August 2019
Temperature: 30.0°C (86°F)
Dewpoint: 16.0°C (61°F) [RH = 43%]
Pressure (altimeter): 30.15 inches Hg (1021.0 mb)
Winds: variable direction winds at 6 MPH (5 knots; 2.6 m/s)
Visibility: 6 or more miles (10+ km)
Ceiling: at least 12,000 feet AGL
Clouds: scattered clouds at 5000 feet AGL
Weather: no significant weather observed at this time

METAR text: LQSA 231230Z VRB03KT 9999 FEW050 30/15 Q1021 NOSIG
Conditions at: LQSA (SARAJEVO/BUTMIR , CS) observed 1230 UTC 23 August 2019
Temperature: 30.0°C (86°F)
Dewpoint: 15.0°C (59°F) [RH = 40%]
Pressure (altimeter): 30.15 inches Hg (1021.0 mb)
Winds: variable direction winds at 3 MPH (3 knots; 1.5 m/s)
Visibility: 6 or more miles (10+ km)
Ceiling: at least 12,000 feet AGL
Clouds: few clouds at 5000 feet AGL
Weather: no significant weather observed at this time

METAR text: LQSA 231200Z VRB02KT 9999 FEW050 31/16 Q1022 NOSIG
Conditions at: LQSA (SARAJEVO/BUTMIR , CS) observed 1200 UTC 23 August 2019
Temperature: 31.0°C (88°F)
Dewpoint: 16.0°C (61°F) [RH = 40%]
Pressure (altimeter): 30.18 inches Hg (1022.0 mb)
Winds: variable direction winds at 2 MPH (2 knots; 1.0 m/s)
Visibility: 6 or more miles (10+ km)
Ceiling: at least 12,000 feet AGL
Clouds: few clouds at 5000 feet AGL
Weather: no significant weather observed at this time

METAR text: LQSA 231130Z 36003KT 320V050 9999 FEW050 29/16 Q1022 NOSIG
Conditions at: LQSA (SARAJEVO/BUTMIR , CS) observed 1130 UTC 23 August 2019
Temperature: 29.0°C (84°F)
Dewpoint: 16.0°C (61°F) [RH = 45%]
Pressure (altimeter): 30.18 inches Hg (1022.0 mb)
Winds: from the N (360 degrees) at 3 MPH (3 knots; 1.5 m/s)
Visibility: 6 or more miles (10+ km)
Ceiling: at least 12,000 feet AGL
Clouds: few clouds at 5000 feet AGL
Weather: no significant weather observed at this time

METAR text: LQSA 231100Z VRB04KT 9999 FEW050 28/17 Q1023 NOSIG
Conditions at: LQSA (SARAJEVO/BUTMIR , CS) observed 1100 UTC 23 August 2019
Temperature: 28.0°C (82°F)
Dewpoint: 17.0°C (63°F) [RH = 51%]
Pressure (altimeter): 30.21 inches Hg (1023.0 mb)
Winds: variable direction winds at 5 MPH (4 knots; 2.1 m/s)
Visibility: 6 or more miles (10+ km)
Ceiling: at least 12,000 feet AGL
Clouds: few clouds at 5000 feet AGL
Weather: no significant weather observed at this time

METAR text: LQSA 231030Z VRB04KT 9999 FEW050 27/17 Q1023 NOSIG
Conditions at: LQSA (SARAJEVO/BUTMIR , CS) observed 1030 UTC 23 August 2019
Temperature: 27.0°C (81°F)
Dewpoint: 17.0°C (63°F) [RH = 54%]
Pressure (altimeter): 30.21 inches Hg (1023.0 mb)
Winds: variable direction winds at 5 MPH (4 knots; 2.1 m/s)
Visibility: 6 or more miles (10+ km)
Ceiling: at least 12,000 feet AGL
Clouds: few clouds at 5000 feet AGL
Weather: no significant weather observed at this time

METAR text: LQSA 231000Z VRB03KT CAVOK 26/17 Q1023 NOSIG
Conditions at: LQSA (SARAJEVO/BUTMIR , CS) observed 1000 UTC 23 August 2019
Temperature: 26.0°C (79°F)
Dewpoint: 17.0°C (63°F) [RH = 58%]
Pressure (altimeter): 30.21 inches Hg (1023.0 mb)
Winds: variable direction winds at 3 MPH (3 knots; 1.5 m/s)
Visibility: 6 or more miles (10+ km)
Ceiling: ceiling and visibility are OK
Clouds: unknown
Weather: no significant weather observed at this time

METAR text: LQSA 230930Z VRB03KT CAVOK 25/18 Q1024 NOSIG
Conditions at: LQSA (SARAJEVO/BUTMIR , CS) observed 0930 UTC 23 August 2019
Temperature: 25.0°C (77°F)
Dewpoint: 18.0°C (64°F) [RH = 65%]
Pressure (altimeter): 30.24 inches Hg (1024.0 mb)
Winds: variable direction winds at 3 MPH (3 knots; 1.5 m/s)
Visibility: 6 or more miles (10+ km)
Ceiling: ceiling and visibility are OK
Clouds: unknown
Weather: no significant weather observed at this time

METAR text: LQSA 230900Z VRB03KT CAVOK 24/17 Q1024 NOSIG
Conditions at: LQSA (SARAJEVO/BUTMIR , CS) observed 0900 UTC 23 August 2019
Temperature: 24.0°C (75°F)
Dewpoint: 17.0°C (63°F) [RH = 65%]
Pressure (altimeter): 30.24 inches Hg (1024.0 mb)
Winds: variable direction winds at 3 MPH (3 knots; 1.5 m/s)
Visibility: 6 or more miles (10+ km)
Ceiling: ceiling and visibility are OK
Clouds: unknown
Weather: no significant weather observed at this time

METAR text: LQSA 230830Z 33004KT 250V020 9999 FEW030 23/17 Q1024 NOSIG
Conditions at: LQSA (SARAJEVO/BUTMIR , CS) observed 0830 UTC 23 August 2019
Temperature: 23.0°C (73°F)
Dewpoint: 17.0°C (63°F) [RH = 69%]
Pressure (altimeter): 30.24 inches Hg (1024.0 mb)
Winds: from the NNW (330 degrees) at 5 MPH (4 knots; 2.1 m/s)
Visibility: 6 or more miles (10+ km)
Ceiling: at least 12,000 feet AGL
Clouds: few clouds at 3000 feet AGL
Weather: no significant weather observed at this time

METAR text: LQSA 230800Z VRB01KT 9999 FEW025 22/17 Q1024 NOSIG
Conditions at: LQSA (SARAJEVO/BUTMIR , CS) observed 0800 UTC 23 August 2019
Temperature: 22.0°C (72°F)
Dewpoint: 17.0°C (63°F) [RH = 73%]
Pressure (altimeter): 30.24 inches Hg (1024.0 mb)
Winds: variable direction winds at 1 MPH (1 knots; 0.5 m/s)
Visibility: 6 or more miles (10+ km)
Ceiling: at least 12,000 feet AGL
Clouds: few clouds at 2500 feet AGL
Weather: no significant weather observed at this time

METAR text: LQSA 230730Z VRB02KT 9999 SCT022 21/17 Q1024 NOSIG
Conditions at: LQSA (SARAJEVO/BUTMIR , CS) observed 0730 UTC 23 August 2019
Temperature: 21.0°C (70°F)
Dewpoint: 17.0°C (63°F) [RH = 78%]
Pressure (altimeter): 30.24 inches Hg (1024.0 mb)
Winds: variable direction winds at 2 MPH (2 knots; 1.0 m/s)
Visibility: 6 or more miles (10+ km)
Ceiling: at least 12,000 feet AGL
Clouds: scattered clouds at 2200 feet AGL
Weather: no significant weather observed at this time

METAR text: LQSA 230700Z VRB02KT 9999 BKN018 20/17 Q1024 NOSIG
Conditions at: LQSA (SARAJEVO/BUTMIR , CS) observed 0700 UTC 23 August 2019
Temperature: 20.0°C (68°F)
Dewpoint: 17.0°C (63°F) [RH = 83%]
Pressure (altimeter): 30.24 inches Hg (1024.0 mb)
Winds: variable direction winds at 2 MPH (2 knots; 1.0 m/s)
Visibility: 6 or more miles (10+ km)
Ceiling: 1800 feet AGL
Clouds: broken clouds at 1800 feet AGL
Weather: no significant weather observed at this time

METAR text: LQSA 230630Z VRB01KT 9999 BKN018 19/17 Q1024 NOSIG
Conditions at: LQSA (SARAJEVO/BUTMIR , CS) observed 0630 UTC 23 August 2019
Temperature: 19.0°C (66°F)
Dewpoint: 17.0°C (63°F) [RH = 88%]
Pressure (altimeter): 30.24 inches Hg (1024.0 mb)
Winds: variable direction winds at 1 MPH (1 knots; 0.5 m/s)
Visibility: 6 or more miles (10+ km)
Ceiling: 1800 feet AGL
Clouds: broken clouds at 1800 feet AGL
Weather: no significant weather observed at this time

METAR text: LQSA 230600Z VRB02KT 9999 BKN018 18/17 Q1024 NOSIG
Conditions at: LQSA (SARAJEVO/BUTMIR , CS) observed 0600 UTC 23 August 2019
Temperature: 18.0°C (64°F)
Dewpoint: 17.0°C (63°F) [RH = 94%]
Pressure (altimeter): 30.24 inches Hg (1024.0 mb)
Winds: variable direction winds at 2 MPH (2 knots; 1.0 m/s)
Visibility: 6 or more miles (10+ km)
Ceiling: 1800 feet AGL
Clouds: broken clouds at 1800 feet AGL
Weather: no significant weather observed at this time

METAR text: LQSA 230530Z VRB01KT 9999 BKN018 87/17 Q1024 NOSIG
Conditions at: LQSA (SARAJEVO/BUTMIR , CS) observed 0530 UTC 23 August 2019
Temperature: 0.0°C (32°F)
Dewpoint: 17.0°C (63°F) [RH = 317%]
Pressure (altimeter): 30.24 inches Hg (1024.0 mb)
Winds: variable direction winds at 1 MPH (1 knots; 0.5 m/s)
Visibility: 6 or more miles (10+ km)
Ceiling: 1800 feet AGL
Clouds: broken clouds at 1800 feet AGL
Weather: no significant weather observed at this time

METAR text: LQSA 230500Z VRB01KT 9999 FRE007 BKN019 17/16 Q1024 NOSIG
Conditions at: LQSA (SARAJEVO/BUTMIR , CS) observed 0500 UTC 23 August 2019
Temperature: 17.0°C (63°F)
Dewpoint: 16.0°C (61°F) [RH = 94%]
Pressure (altimeter): 30.24 inches Hg (1024.0 mb)
Winds: variable direction winds at 1 MPH (1 knots; 0.5 m/s)
Visibility: 6 or more miles (10+ km)
Ceiling: 1900 feet AGL
Clouds: broken clouds at 1900 feet AGL
Weather: no significant weather observed at this time

METAR text: LQSA 230430Z VRB01KT 9999 SCT020 16/16 Q1024
Conditions at: LQSA (SARAJEVO/BUTMIR , CS) observed 0430 UTC 23 August 2019
Temperature: 16.0°C (61°F)
Dewpoint: 16.0°C (61°F) [RH = 100%]
Pressure (altimeter): 30.24 inches Hg (1024.0 mb)
Winds: variable direction winds at 1 MPH (1 knots; 0.5 m/s)
Visibility: 6 or more miles (10+ km)
Ceiling: at least 12,000 feet AGL
Clouds: scattered clouds at 2000 feet AGL
Weather: no significant weather observed at this time

METAR text: LQSA 230400Z VRB02KT 9999 SCT019 16/16 Q1024
Conditions at: LQSA (SARAJEVO/BUTMIR , CS) observed 0400 UTC 23 August 2019
Temperature: 16.0°C (61°F)
Dewpoint: 16.0°C (61°F) [RH = 100%]
Pressure (altimeter): 30.24 inches Hg (1024.0 mb)
Winds: variable direction winds at 2 MPH (2 knots; 1.0 m/s)
Visibility: 6 or more miles (10+ km)
Ceiling: at least 12,000 feet AGL
Clouds: scattered clouds at 1900 feet AGL
Weather: no significant weather observed at this time

METAR text: LQSA 230330Z VRB02KT 9999 FEW010 16/16 Q1024
Conditions at: LQSA (SARAJEVO/BUTMIR , CS) observed 0330 UTC 23 August 2019
Temperature: 16.0°C (61°F)
Dewpoint: 16.0°C (61°F) [RH = 100%]
Pressure (altimeter): 30.24 inches Hg (1024.0 mb)
Winds: variable direction winds at 2 MPH (2 knots; 1.0 m/s)
Visibility: 6 or more miles (10+ km)
Ceiling: at least 12,000 feet AGL
Clouds: few clouds at 1000 feet AGL
Weather: no significant weather observed at this time

METAR text: LQSA 230300Z VRB02KT CAVOK 16/16 Q1024
Conditions at: LQSA (SARAJEVO/BUTMIR , CS) observed 0300 UTC 23 August 2019
Temperature: 16.0°C (61°F)
Dewpoint: 16.0°C (61°F) [RH = 100%]
Pressure (altimeter): 30.24 inches Hg (1024.0 mb)
Winds: variable direction winds at 2 MPH (2 knots; 1.0 m/s)
Visibility: 6 or more miles (10+ km)
Ceiling: ceiling and visibility are OK
Clouds: unknown
Weather: no significant weather observed at this time

Forecast for: LQSA (SARAJEVO/BUTMIR , CS)
Text: TAF LQSA 241100Z 2412/2512 VRB02KT 9999 FEW040TCU SCT050 TX29/2412Z TN16/2504Z
Forecast period: 1200 to 1800 UTC 24 August 2019
Forecast type: FROM: standard forecast or significant change
Winds: variable direction winds at 2 MPH (2 knots; 1.0 m/s)
Visibility: 6 or more miles 10+ km)
Ceiling: at least 12,000 feet AGL
Clouds: few clouds at 4000 feet AGL
scattered clouds at 5000 feet AGL
Weather: no significant weather forecast for this period
Text: TEMPO 2412/2417 VRB12KT TSRA FEW035CB BKN045
Forecast period: 1200 to 1700 UTC 24 August 2019
Forecast type: TEMPORARY: The following changes expected for less than half the time period
Winds: variable direction winds at 14 MPH (12 knots; 6.2 m/s)
Visibility: missing
Ceiling: 4500 feet AGL
Clouds: few clouds at 3500 feet AGL
broken clouds at 4500 feet AGL
Weather: TSRA  (rain associated with thunderstorm(s))
Text: BECMG 2418/2419 NSC
Forecast period: 1800 UTC 24 August 2019 to 1200 UTC 25 August 2019
Forecast type: BECOMING: Conditions expected to become as follows by 1900 UTC 24 August 2019
Winds: variable direction winds at 2 MPH (2 knots; 1.0 m/s)
Visibility: 6 or more miles 10+ km)
Ceiling: unknown
Clouds: missing
Weather: no significant weather forecast for this period
Text: PROB40 2503/2507 3000 BR
Forecast period: 0300 to 0700 UTC 25 August 2019
Forecast type: PROBABLE: 40 percent likelihood of the following during this time
Visibility: 1.86 miles (2.99 km)
Ceiling: unknown
Clouds: missing
Weather: BR  (mist)